WetterOnline ( https://www.wetteronline.de )

Wetter aktuell Denkendorf

Aktuelles Wetter: Gelbelsee (539m)

6-stündlich | Neueste Meldungen
Ortszeit Temperatur Wetter
Sa, 08.05. 8:00 6.3° C leicht bewölkt
Sa, 08.05. 2:00 1.2° C wolkenlos
Fr, 07.05. 20:00 6.9° C wolkenlos
Fr, 07.05. 14:00 8.1° C bewölkt
Fr, 07.05. 8:00 5.0° C Sprühregen
Fr, 07.05. 2:00 7.7° C bedeckt
Do, 06.05. 20:00 6.1° C leichter Regen
Do, 06.05. 14:00 8.4° C bedeckt
Ortszeit Temperatur Wetter
Sa, 08.05. 9:30 8.2° C leicht bewölkt
Sa, 08.05. 9:20 8.2° C leicht bewölkt
Sa, 08.05. 9:10 8.1° C fast wolkenlos
Sa, 08.05. 9:00 7.5° C leicht bewölkt
Sa, 08.05. 8:50 7.5° C leicht bewölkt
Sa, 08.05. 8:40 7.5° C leicht bewölkt
Sa, 08.05. 8:30 7.0° C fast wolkenlos
Sa, 08.05. 8:00 6.3° C leicht bewölkt
Sa, 08.05. 7:30 5.1° C leicht bewölkt
Sa, 08.05. 7:00 4.1° C wolkenlos
Sa, 08.05. 6:30 2.1° C wolkenlos
Ortszeit Relative Feuchte Sichtweite
Sa, 08.05. 8:00 66% 55 km
Sa, 08.05. 2:00 88% 40 km
Fr, 07.05. 20:00 61% 55 km
Fr, 07.05. 14:00 64% 35 km
Fr, 07.05. 8:00 93% 30 km
Fr, 07.05. 2:00 88% >70 km
Do, 06.05. 20:00 97% 11 km
Do, 06.05. 14:00 63% 65 km
Ortszeit Relative Feuchte Sichtweite
Sa, 08.05. 9:30 59% >70 km
Sa, 08.05. 9:20 59% -
Sa, 08.05. 9:10 59% -
Sa, 08.05. 9:00 60% >70 km
Sa, 08.05. 8:50 60% -
Sa, 08.05. 8:40 64% -
Sa, 08.05. 8:30 65% 35 km
Sa, 08.05. 8:00 66% 55 km
Sa, 08.05. 7:30 70% 40 km
Sa, 08.05. 7:00 77% 40 km
Sa, 08.05. 6:30 83% 25 km
Ortszeit Niederschlagsmenge Niederschlagsart
Sa, 08.05. 8:00 0.0 l/m2 in 12 Std. -
Sa, 08.05. 2:00 0.0 l/m2 in 6 Std. -
Fr, 07.05. 20:00 2 l/m2 in 12 Std. Regen
Fr, 07.05. 14:00 1 l/m2 in 6 Std. Regen
Fr, 07.05. 8:00 4 l/m2 in 12 Std. Regen
Fr, 07.05. 2:00 4 l/m2 in 6 Std. Regen
Do, 06.05. 20:00 6 l/m2 in 12 Std. Regen
Do, 06.05. 14:00 0.1 l/m2 in 6 Std. Regen
Ortszeit Niederschlagsmenge Niederschlagsart
Sa, 08.05. 9:30 0.0 l/m2 in 1 Std. -
Sa, 08.05. 9:20 keine Meldung -
Sa, 08.05. 9:10 keine Meldung -
Sa, 08.05. 9:00 0.0 l/m2 in 1 Std. -
Sa, 08.05. 8:50 keine Meldung -
Sa, 08.05. 8:40 keine Meldung -
Sa, 08.05. 8:30 0.0 l/m2 in 1 Std. -
Sa, 08.05. 8:00 0.0 l/m2 in 1 Std. -
Sa, 08.05. 7:30 0.0 l/m2 in 1 Std. -
Sa, 08.05. 7:00 0.0 l/m2 in 1 Std. -
Sa, 08.05. 6:30 0.0 l/m2 in 1 Std. -
Ortszeit Stärke Spitze Richtung
km/h Bft. km/h Grad Sektor
Sa, 08.05. 8:00 4 1 14 170° S
Sa, 08.05. 2:00 2 1 30 280° W
Fr, 07.05. 20:00 22 4 61 290° W
Fr, 07.05. 14:00 17 3 43 290° W
Fr, 07.05. 8:00 11 2 33 260° W
Fr, 07.05. 2:00 22 4 40 250° W
Do, 06.05. 20:00 7 2 36 170° S
Do, 06.05. 14:00 7 2 32 230° SW
Ortszeit Stärke Spitze Richtung
km/h Bft. km/h Grad Sektor
Sa, 08.05. 9:30 13 3 20 140° SO
Sa, 08.05. 9:20 13 3 - 140° SO
Sa, 08.05. 9:10 14 3 - 130° SO
Sa, 08.05. 9:00 11 2 18 130° SO
Sa, 08.05. 8:50 11 2 - 130° SO
Sa, 08.05. 8:40 9 2 - 140° SO
Sa, 08.05. 8:30 7 2 14 140° SO
Sa, 08.05. 8:00 4 1 7 170° S
Sa, 08.05. 7:30 4 1 7 190° S
Sa, 08.05. 7:00 4 1 7 180° S
Sa, 08.05. 6:30 4 1 7 170° S
Ortszeit Untergrenze Bedeckung Gattung
total tief tief mittel hoch
Sa, 08.05. 8:00 8700 m 7/8 0/8 - - -
Sa, 08.05. 2:00 - 0/8 0/8 - - -
Fr, 07.05. 20:00 - 0/8 0/8 - - -
Fr, 07.05. 14:00 1170 m 7/8 7/8 - - -
Fr, 07.05. 8:00 330 m 7/8 7/8 - - -
Fr, 07.05. 2:00 240 m 8/8 8/8 - - -
Do, 06.05. 20:00 180 m 8/8 8/8 - - -
Do, 06.05. 14:00 1350 m 8/8 8/8 - - -
Ortszeit Bedeckungsgrad in Achtel und Wolkenuntergrenze
Sa, 08.05. 9:30 4(10500m)
Sa, 08.05. 9:20 4(10500m)
Sa, 08.05. 9:10 2(10500m)
Sa, 08.05. 9:00 2(9000m) 5(10500m)
Sa, 08.05. 8:50 2(9000m) 5(10500m)
Sa, 08.05. 8:40 2(9000m) 6(10500m)
Sa, 08.05. 8:30 1(9000m) 5(10500m)
Sa, 08.05. 8:00 1(8700m) 7(9000m)
Sa, 08.05. 7:30 3(9000m) 4(9000m) 7(9000m)
Sa, 08.05. 7:00 keine Wolken
Sa, 08.05. 6:30 keine Wolken
Ortszeit Luftdruck NN (hPa) Tendenz (hPa in 3 Std.)
Sa, 08.05. 8:00 1022 + 0,1
Sa, 08.05. 2:00 1023 + 0,4
Fr, 07.05. 20:00 1019 + 1,9
Fr, 07.05. 14:00 1014 + 2,0
Fr, 07.05. 8:00 1010 + 1,6
Fr, 07.05. 2:00 1007 + 1,1
Do, 06.05. 20:00 1006 - 2,0
Do, 06.05. 14:00 1010 - 0,8
Ortszeit Luftdruck NN (hPa) Tendenz (hPa in 3 Std.)
Sa, 08.05. 9:30 1021 0,0
Sa, 08.05. 9:20 1021 keine Meldung
Sa, 08.05. 9:10 1021 keine Meldung
Sa, 08.05. 9:00 1021 + 0,2
Sa, 08.05. 8:50 1021 keine Meldung
Sa, 08.05. 8:40 1021 keine Meldung
Sa, 08.05. 8:30 1022 + 0,2
Sa, 08.05. 8:00 1022 + 0,1
Sa, 08.05. 7:30 1022 0,0
Sa, 08.05. 7:00 1022 - 0,2
Sa, 08.05. 6:30 1023 - 0,2
Ortszeit Schneehöhe (cm)
Sa, 08.05. 8:00 0
Sa, 08.05. 2:00 0
Fr, 07.05. 20:00 0
Fr, 07.05. 14:00 0
Fr, 07.05. 8:00 0
Fr, 07.05. 2:00 0
Do, 06.05. 20:00 0
Do, 06.05. 14:00 0
Ortszeit Schneehöhe (cm)
Sa, 08.05. 9:30 0
Sa, 08.05. 9:20 0
Sa, 08.05. 9:10 0
Sa, 08.05. 9:00 0
Sa, 08.05. 8:50 0
Sa, 08.05. 8:40 0
Sa, 08.05. 8:30 0
Sa, 08.05. 8:00 0
Sa, 08.05. 7:30 0
Sa, 08.05. 7:00 0
Sa, 08.05. 6:30 0
Link zu dieser Seite / Seite empfehlen

Das Wetter in ...